Terminal Aerodrome Forecast
Issued by NWS

Home | Current Version | Previous Version | Text Only | Print | Product List | Glossary On
Versions: 1 2 3 4 5 6 7 8 9 10 11 12 13 14 15 16 17 18 19 20 21 22 23 24 25 26
000
FTUS43 KTOP 161549 AAB
TAFFOE
TAF AMD
KFOE 161549Z 1616/1712 17010KT P6SM -SHRA SCT050 BKN100
     FM161700 19010KT P6SM SCT030
     FM162100 22010KT P6SM TSRA BKN040CB
     FM170300 28007KT P6SM BKN110=

USA.gov is the U.S. government's official web portal to all federal, state and local government web resources and services.